CheckWX is a tool to help pilots better visualize weather data.  It is not intended as a substitute for an official pre-flight weather briefing.

05:52:37 UTC

KGUS TAF
Grissom ARB Airport
Peru, Indiana, USA
TAF KGUS 200300Z 2003/2109 VRB06KT 9999 FEW026 QNH3003INS BECMG 2019/2020 23010G15KT 9999 SCT140 QNH2992INS BECMG 2023/2024 VRB06KT 9000 -SHRA BKN020 QNH2989INS TEMPO 2100/2104 27020G25KT 4800 -TSRA BKN025CB OVC040 TX32/2020Z TN21/2010Z

Aug-20@
03:00 UTC

Aug-20 @ 03:00 UTC

Aug-20@
19:00 UTC

Aug-20 @ 19:00 UTC

TAF KGUS 200300Z 2003/2109 VRB06KT 9999 FEW026 QNH3003INS
Wind
  • Variable at 6 KTS
Cloud Levels
  • Few at 2,600' AGL

Aug-20@
19:00 UTC

Aug-20 @ 19:00 UTC

Aug-20@
23:00 UTC

Aug-20 @ 23:00 UTC

BECMG 2019/2020 23010G15KT 9999 SCT140 QNH2992INS

Becoming

Becoming Conditions expected by Tue, Aug 20, 2019 @ 20:00 UTC

Wind
  • 230° at 10 KTS
  • {Gusting to 15 KTS
Cloud Levels
  • Scattered at 14,000' AGL

Aug-20@
23:00 UTC

Aug-20 @ 23:00 UTC

Aug-21@
09:00 UTC

Aug-21 @ 09:00 UTC

BECMG 2023/2024 VRB06KT 9000 -SHRA BKN020 QNH2989INS

Becoming

Becoming Conditions expected by Wed, Aug 21, 2019 @ 00:00 UTC

Wind
  • Variable at 6 KTS
Conditions
Light Rain
Cloud Levels
  • Broken at 2,000' AGL

Aug-21@
00:00 UTC

Aug-21 @ 00:00 UTC

Aug-21@
04:00 UTC

Aug-21 @ 04:00 UTC

TEMPO 2100/2104 27020G25KT 4800 -TSRA BKN025CB OVC040 TX32/2020Z TN21/2010Z

Temporary

Temporary Changes expected for less than half the time period

Wind
  • 270° at 20 KTS
  • {Gusting to 25 KTS
Conditions
Light Thunderstorm, Light Rain
Cloud Levels
  • Broken at 2,500' AGL
  • Overcast at 4,000' AGL